createdAt,value
2023-04-02T00:00:10.656Z,8.90
2023-04-02T00:01:20.704Z,8.40
2023-04-02T00:02:25.461Z,8.73
2023-04-02T00:03:10.755Z,8.70
2023-04-02T00:03:59.839Z,8.05
2023-04-02T00:04:41.840Z,10.50
2023-04-02T00:05:30.359Z,9.30
2023-04-02T00:06:47.335Z,7.88
2023-04-02T00:07:33.731Z,8.63
2023-04-02T00:08:23.484Z,8.20
2023-04-02T00:09:14.125Z,8.95
2023-04-02T00:09:57.582Z,9.23
2023-04-02T00:10:55.312Z,8.90
2023-04-02T00:11:49.725Z,8.25
2023-04-02T00:12:34.040Z,10.35
2023-04-02T00:13:18.676Z,7.88
2023-04-02T00:14:02.433Z,8.10
2023-04-02T00:14:49.800Z,8.90
2023-04-02T00:15:34.466Z,9.00
2023-04-02T00:16:23.325Z,8.70
2023-04-02T00:17:06.647Z,9.35
2023-04-02T00:17:48.458Z,10.05
2023-04-02T00:18:32.103Z,9.57
2023-04-02T00:19:20.318Z,9.23
2023-04-02T00:20:06.859Z,9.75
2023-04-02T00:21:29.437Z,10.00
2023-04-02T00:22:18.330Z,9.55
2023-04-02T00:23:00.620Z,9.48
2023-04-02T00:23:44.191Z,8.98
2023-04-02T00:24:26.266Z,9.88
2023-04-02T00:25:12.417Z,9.30
2023-04-02T00:25:54.272Z,10.05
2023-04-02T00:26:43.376Z,10.82
2023-04-02T00:27:25.234Z,9.57
2023-04-02T00:28:09.384Z,10.43
2023-04-02T00:28:52.196Z,9.85
2023-04-02T00:29:34.225Z,9.85
2023-04-02T00:30:16.315Z,11.52
2023-04-02T00:31:00.301Z,11.40
2023-04-02T00:31:47.741Z,11.27
2023-04-02T00:32:33.413Z,11.55
2023-04-02T00:33:21.244Z,10.93
2023-04-02T00:34:04.861Z,10.70
2023-04-02T00:34:49.110Z,10.20
2023-04-02T00:35:31.240Z,10.20
2023-04-02T00:36:13.547Z,9.60
2023-04-02T00:36:56.767Z,8.50
2023-04-02T00:37:39.471Z,7.15
2023-04-02T00:38:33.456Z,6.70
2023-04-02T00:39:41.556Z,6.60
2023-04-02T00:40:27.830Z,6.90
2023-04-02T00:41:16.553Z,6.35
2023-04-02T00:42:05.429Z,6.60
2023-04-02T00:42:49.394Z,6.85
2023-04-02T00:43:36.368Z,4.78
2023-04-02T00:44:21.660Z,4.10
2023-04-02T00:45:04.474Z,3.35
2023-04-02T00:45:51.173Z,4.15
2023-04-02T00:46:49.758Z,3.60
2023-04-02T00:47:35.908Z,3.40
2023-04-02T00:48:33.480Z,4.45
2023-04-02T00:49:24.320Z,3.20
2023-04-02T00:50:29.038Z,3.35
2023-04-02T00:51:20.992Z,2.80
2023-04-02T00:52:16.599Z,3.10
2023-04-02T00:53:00.540Z,4.00
2023-04-02T00:53:45.383Z,3.83
2023-04-02T00:54:31.438Z,3.85
2023-04-02T00:55:37.089Z,3.17
2023-04-02T00:56:34.441Z,3.10
2023-04-02T00:57:21.909Z,3.30
2023-04-02T00:58:04.687Z,3.50
2023-04-02T00:58:53.592Z,3.28
2023-04-02T01:00:00.103Z,3.00
2023-04-02T01:00:52.936Z,3.53
2023-04-02T01:01:37.094Z,4.13
2023-04-02T01:02:21.348Z,3.30
2023-04-02T01:03:19.227Z,3.13
2023-04-02T01:04:02.833Z,4.30
2023-04-02T01:04:56.626Z,5.80
2023-04-02T01:05:38.876Z,3.50
2023-04-02T01:06:24.283Z,4.20
2023-04-02T01:07:10.585Z,4.13
2023-04-02T01:08:13.640Z,3.13
2023-04-02T01:09:14.026Z,3.80
2023-04-02T01:10:18.652Z,3.17
2023-04-02T01:11:28.625Z,3.20
2023-04-02T01:12:19.690Z,3.60
2023-04-02T01:13:36.549Z,3.20
2023-04-02T01:14:26.536Z,4.65
2023-04-02T01:15:33.454Z,3.83
2023-04-02T01:16:31.028Z,3.40
2023-04-02T01:17:28.394Z,4.30
2023-04-02T01:18:41.865Z,3.45
2023-04-02T01:19:27.581Z,3.50
2023-04-02T01:20:43.794Z,4.53
2023-04-02T01:21:53.951Z,3.58
2023-04-02T01:23:05.895Z,4.55
2023-04-02T01:23:58.984Z,4.30
2023-04-02T01:24:44.043Z,3.50
2023-04-02T01:25:36.989Z,3.20
2023-04-02T01:26:33.689Z,4.90
2023-04-02T01:27:24.892Z,4.00
2023-04-02T01:28:24.598Z,3.90
2023-04-02T01:29:19.555Z,3.42
2023-04-02T01:30:03.163Z,4.45
2023-04-02T01:30:52.943Z,4.10
2023-04-02T01:31:35.610Z,4.22
2023-04-02T01:32:21.760Z,3.40
2023-04-02T01:33:08.183Z,3.30
2023-04-02T01:33:50.428Z,3.70
2023-04-02T01:34:33.313Z,3.70
2023-04-02T01:35:15.811Z,3.35
2023-04-02T01:36:29.550Z,3.50
2023-04-02T01:37:29.260Z,3.70
2023-04-02T01:38:11.814Z,3.20
2023-04-02T01:39:24.558Z,3.20
2023-04-02T01:40:21.264Z,4.30
2023-04-02T01:41:13.916Z,3.90
2023-04-02T01:42:18.838Z,3.30
2023-04-02T01:43:58.674Z,3.80
2023-04-02T01:44:52.177Z,3.90
2023-04-02T01:45:35.340Z,3.70
2023-04-02T01:46:29.858Z,3.72
2023-04-02T01:47:15.429Z,3.40
2023-04-02T01:48:00.581Z,4.68
2023-04-02T01:48:42.899Z,3.10
2023-04-02T01:49:24.910Z,3.40
2023-04-02T01:50:33.663Z,3.33
2023-04-02T01:51:32.974Z,3.83
2023-04-02T01:52:37.999Z,3.70
2023-04-02T01:53:21.991Z,3.00
2023-04-02T01:54:06.322Z,3.40
2023-04-02T01:54:48.706Z,4.22
2023-04-02T01:55:55.898Z,4.30
2023-04-02T01:56:37.881Z,3.90
2023-04-02T01:57:19.861Z,3.30
2023-04-02T01:58:03.950Z,4.00
2023-04-02T01:58:48.669Z,4.50
2023-04-02T01:59:33.262Z,4.07
2023-04-02T02:00:16.950Z,3.25
2023-04-02T02:00:58.800Z,3.88
2023-04-02T02:01:53.170Z,3.80
2023-04-02T02:02:38.186Z,3.70
2023-04-02T02:03:23.877Z,3.17
2023-04-02T02:04:06.393Z,3.10
2023-04-02T02:04:48.948Z,3.70
2023-04-02T02:05:33.650Z,3.80
2023-04-02T02:06:18.786Z,5.30
2023-04-02T02:07:02.183Z,4.30
2023-04-02T02:07:44.865Z,3.47
2023-04-02T02:08:40.343Z,3.70
2023-04-02T02:09:28.209Z,3.40
2023-04-02T02:10:16.380Z,3.03
2023-04-02T02:10:58.590Z,3.15
2023-04-02T02:11:41.190Z,3.55
2023-04-02T02:12:23.841Z,3.08
2023-04-02T02:13:07.899Z,3.30
2023-04-02T02:14:01.582Z,3.20
2023-04-02T02:14:49.344Z,3.33
2023-04-02T02:15:33.732Z,3.58
2023-04-02T02:16:18.158Z,4.07
2023-04-02T02:17:02.495Z,3.67
2023-04-02T02:17:45.057Z,4.70
2023-04-02T02:18:28.292Z,4.90
2023-04-02T02:19:23.388Z,3.20
2023-04-02T02:20:12.478Z,3.50
2023-04-02T02:20:59.288Z,3.13
2023-04-02T02:21:50.584Z,3.05
2023-04-02T02:22:39.128Z,3.60
2023-04-02T02:23:22.188Z,3.00
2023-04-02T02:24:04.948Z,3.00
2023-04-02T02:24:48.238Z,4.07
2023-04-02T02:25:33.354Z,3.88
2023-04-02T02:26:16.107Z,3.50
2023-04-02T02:27:23.645Z,2.70
2023-04-02T02:28:08.433Z,3.10
2023-04-02T02:28:55.300Z,2.90
2023-04-02T02:29:43.614Z,3.10
2023-04-02T02:30:59.478Z,3.25
2023-04-02T02:31:44.973Z,2.80
2023-04-02T02:32:34.128Z,2.75
2023-04-02T02:33:30.668Z,2.70
2023-04-02T02:34:23.094Z,2.88
2023-04-02T02:35:24.153Z,3.40
2023-04-02T02:36:19.630Z,3.30
2023-04-02T02:37:17.946Z,3.25
2023-04-02T02:38:25.921Z,4.30
2023-04-02T02:39:34.544Z,3.10
2023-04-02T02:40:27.615Z,3.40
2023-04-02T02:41:34.049Z,2.60
2023-04-02T02:42:22.563Z,3.15
2023-04-02T02:43:13.925Z,3.08
2023-04-02T02:44:08.542Z,3.40
2023-04-02T02:44:52.340Z,3.00
2023-04-02T02:45:41.024Z,3.20
2023-04-02T02:46:25.455Z,3.80
2023-04-02T02:47:11.224Z,3.17
2023-04-02T02:47:54.997Z,3.90
2023-04-02T02:48:39.140Z,4.40
2023-04-02T02:49:43.291Z,4.00
2023-04-02T02:50:31.288Z,3.00
2023-04-02T02:51:25.199Z,3.17
2023-04-02T02:52:15.596Z,3.40
2023-04-02T02:52:59.640Z,3.13
2023-04-02T02:53:53.211Z,3.13
2023-04-02T02:54:43.077Z,3.10
2023-04-02T02:55:39.690Z,2.92
2023-04-02T02:56:23.355Z,3.40
2023-04-02T02:57:09.766Z,3.28
2023-04-02T02:58:00.015Z,5.30
2023-04-02T02:58:42.421Z,3.20
2023-04-02T02:59:25.026Z,3.53
2023-04-02T03:00:09.935Z,4.20
2023-04-02T03:00:54.283Z,4.35
2023-04-02T03:01:39.574Z,4.18
2023-04-02T03:02:23.487Z,3.50
2023-04-02T03:03:10.821Z,3.05
2023-04-02T03:03:54.890Z,3.20
2023-04-02T03:04:38.317Z,3.70
2023-04-02T03:05:23.712Z,3.20
2023-04-02T03:06:11.740Z,3.50
2023-04-02T03:06:56.420Z,3.70
2023-04-02T03:07:38.818Z,4.40
2023-04-02T03:08:41.548Z,4.38
2023-04-02T03:10:02.560Z,3.28
2023-04-02T03:10:59.581Z,3.28
2023-04-02T03:11:53.574Z,3.30
2023-04-02T03:12:39.517Z,3.40
2023-04-02T03:13:35.311Z,3.70
2023-04-02T03:14:35.074Z,3.00
2023-04-02T03:15:31.550Z,3.83
2023-04-02T03:16:36.509Z,3.88
2023-04-02T03:17:27.350Z,4.10
2023-04-02T03:18:14.766Z,3.58
2023-04-02T03:19:05.822Z,3.60
2023-04-02T03:19:54.604Z,4.30
2023-04-02T03:21:11.945Z,4.40
2023-04-02T03:22:07.694Z,3.30
2023-04-02T03:23:20.721Z,3.55
2023-04-02T03:24:32.475Z,3.00
2023-04-02T03:25:20.079Z,3.58
2023-04-02T03:26:25.602Z,3.85
2023-04-02T03:27:26.434Z,3.60
2023-04-02T03:28:23.769Z,4.28
2023-04-02T03:29:24.826Z,3.65
2023-04-02T03:30:25.247Z,3.65
2023-04-02T03:31:12.861Z,3.40
2023-04-02T03:32:00.718Z,3.30
2023-04-02T03:32:46.492Z,3.13
2023-04-02T03:33:33.908Z,4.20
2023-04-02T03:34:25.698Z,3.50
2023-04-02T03:35:30.498Z,3.35
2023-04-02T03:36:43.710Z,3.20
2023-04-02T03:37:40.860Z,3.90
2023-04-02T03:38:31.492Z,3.92
2023-04-02T03:39:33.388Z,4.82
2023-04-02T03:40:24.893Z,3.15
2023-04-02T03:41:30.651Z,3.67
2023-04-02T03:42:26.928Z,3.15
2023-04-02T03:43:25.286Z,3.38
2023-04-02T03:44:20.894Z,2.90
2023-04-02T03:45:22.494Z,3.53
2023-04-02T03:46:41.535Z,3.30
2023-04-02T03:47:44.070Z,3.88
2023-04-02T03:48:34.615Z,3.45
2023-04-02T03:49:26.957Z,3.25
2023-04-02T03:50:29.346Z,3.75
2023-04-02T03:51:33.880Z,3.42
2023-04-02T03:52:25.087Z,3.22
2023-04-02T03:53:08.772Z,3.30
2023-04-02T03:53:50.832Z,3.70
2023-04-02T03:54:33.565Z,3.97
2023-04-02T03:55:22.934Z,3.20
2023-04-02T03:56:06.645Z,3.70
2023-04-02T03:56:49.396Z,3.53
2023-04-02T03:57:40.457Z,3.50
2023-04-02T03:58:25.802Z,4.00
2023-04-02T03:59:35.601Z,3.60
2023-04-02T04:00:47.925Z,4.10
2023-04-02T04:01:36.963Z,3.92
2023-04-02T04:02:52.630Z,3.53
2023-04-02T04:03:39.961Z,3.90
2023-04-02T04:04:25.368Z,4.47
2023-04-02T04:05:23.594Z,4.70
2023-04-02T04:06:31.710Z,4.13
2023-04-02T04:07:34.414Z,4.28
2023-04-02T04:08:25.115Z,4.32
2023-04-02T04:09:13.752Z,4.03
2023-04-02T04:09:59.528Z,4.40
2023-04-02T04:10:43.437Z,4.05
2023-04-02T04:11:32.572Z,4.32
2023-04-02T04:12:55.424Z,5.43
2023-04-02T04:13:56.361Z,4.53
2023-04-02T04:14:45.766Z,5.20
2023-04-02T04:15:31.563Z,5.15
2023-04-02T04:16:20.857Z,5.05
2023-04-02T04:17:53.707Z,5.68
2023-04-02T04:18:44.578Z,5.00
2023-04-02T04:19:40.515Z,4.40
2023-04-02T04:20:47.532Z,4.88
2023-04-02T04:21:39.891Z,4.47
2023-04-02T04:22:30.124Z,4.80
2023-04-02T04:23:30.651Z,5.22
2023-04-02T04:24:23.463Z,4.68
2023-04-02T04:25:17.998Z,3.97
2023-04-02T04:26:49.636Z,4.18
2023-04-02T04:27:42.786Z,5.40
2023-04-02T04:28:40.366Z,5.80
2023-04-02T04:30:01.616Z,5.45
2023-04-02T04:31:09.525Z,5.28
2023-04-02T04:31:55.342Z,5.25
2023-04-02T04:32:50.158Z,5.50
2023-04-02T04:33:39.972Z,5.05
2023-04-02T04:34:44.574Z,5.10
2023-04-02T04:35:40.277Z,5.13
2023-04-02T04:36:37.813Z,7.00
2023-04-02T04:37:29.186Z,5.28
2023-04-02T04:38:21.909Z,4.90
2023-04-02T04:39:14.664Z,5.10
2023-04-02T04:40:11.972Z,4.60
2023-04-02T04:41:00.954Z,6.15
2023-04-02T04:41:43.791Z,5.43
2023-04-02T04:42:33.672Z,6.00
2023-04-02T04:43:22.864Z,4.28
2023-04-02T04:44:25.858Z,4.82
2023-04-02T04:45:24.702Z,5.18
2023-04-02T04:46:26.972Z,5.32
2023-04-02T04:47:48.758Z,7.47
2023-04-02T04:48:48.654Z,4.65
2023-04-02T04:49:44.466Z,4.32
2023-04-02T04:51:03.497Z,5.15
2023-04-02T04:52:12.014Z,4.50
2023-04-02T04:52:53.833Z,5.00
2023-04-02T04:53:48.903Z,4.35
2023-04-02T04:54:30.831Z,4.55
2023-04-02T04:55:39.682Z,5.50
2023-04-02T04:56:25.928Z,4.50
2023-04-02T04:57:37.003Z,5.15
2023-04-02T04:58:40.064Z,4.57
2023-04-02T04:59:28.124Z,5.50
2023-04-02T05:00:25.751Z,5.10
2023-04-02T05:01:23.138Z,4.97
2023-04-02T05:02:18.664Z,4.57
2023-04-02T05:03:20.787Z,4.72
2023-04-02T05:04:33.950Z,4.40
2023-04-02T05:05:29.608Z,4.53
2023-04-02T05:06:36.522Z,4.95
2023-04-02T05:07:29.445Z,5.10
2023-04-02T05:08:35.728Z,7.20
2023-04-02T05:09:33.154Z,5.20
2023-04-02T05:10:38.803Z,5.85
2023-04-02T05:11:38.256Z,5.13
2023-04-02T05:12:45.943Z,5.00
2023-04-02T05:13:44.514Z,6.13
2023-04-02T05:14:42.398Z,5.38
2023-04-02T05:15:48.595Z,5.70
2023-04-02T05:16:43.957Z,5.35
2023-04-02T05:17:25.968Z,4.80
2023-04-02T05:18:16.296Z,5.28
2023-04-02T05:19:08.111Z,5.35
2023-04-02T05:20:31.181Z,5.57
2023-04-02T05:21:33.957Z,4.85
2023-04-02T05:22:39.420Z,7.40
2023-04-02T05:23:28.274Z,4.75
2023-04-02T05:24:24.643Z,4.80
2023-04-02T05:25:25.807Z,4.88
2023-04-02T05:26:24.319Z,4.85
2023-04-02T05:27:53.194Z,4.10
2023-04-02T05:29:00.632Z,5.00
2023-04-02T05:29:47.439Z,4.68
2023-04-02T05:30:29.304Z,5.13
2023-04-02T05:31:38.226Z,5.25
2023-04-02T05:32:28.152Z,5.75
2023-04-02T05:33:23.978Z,5.40
2023-04-02T05:34:27.766Z,5.40
2023-04-02T05:35:19.065Z,5.40
2023-04-02T05:36:05.779Z,5.07
2023-04-02T05:36:48.836Z,6.10
2023-04-02T05:37:31.236Z,5.75
2023-04-02T05:38:25.884Z,5.20
2023-04-02T05:39:11.534Z,4.88
2023-04-02T05:39:58.997Z,5.28
2023-04-02T05:40:46.314Z,5.38
2023-04-02T05:41:38.864Z,4.90
2023-04-02T05:42:35.336Z,4.95
2023-04-02T05:43:20.462Z,5.32
2023-04-02T05:44:22.861Z,5.47
2023-04-02T05:45:29.380Z,5.10
2023-04-02T05:46:19.441Z,5.20
2023-04-02T05:47:06.131Z,5.60
2023-04-02T05:47:52.353Z,5.57
2023-04-02T05:48:40.624Z,6.57
2023-04-02T05:49:34.092Z,5.60
2023-04-02T05:50:24.763Z,5.60
2023-04-02T05:51:14.628Z,5.65
2023-04-02T05:52:00.857Z,5.78
2023-04-02T05:53:14.605Z,6.10
2023-04-02T05:54:01.409Z,5.70
2023-04-02T05:54:55.166Z,5.43
2023-04-02T05:55:43.261Z,5.78
2023-04-02T05:56:26.217Z,5.30
2023-04-02T05:57:15.057Z,5.65
2023-04-02T05:58:29.463Z,6.43
2023-04-02T05:59:24.883Z,5.13
2023-04-02T06:00:13.620Z,5.75
2023-04-02T06:01:03.985Z,7.70
2023-04-02T06:01:51.299Z,5.57
2023-04-02T06:02:45.140Z,5.88
2023-04-02T06:03:59.457Z,6.40
2023-04-02T06:04:52.909Z,5.30
2023-04-02T06:05:39.577Z,5.70
2023-04-02T06:06:36.551Z,5.68
2023-04-02T06:07:23.327Z,5.75
2023-04-02T06:08:35.400Z,6.00
2023-04-02T06:09:29.002Z,5.53
2023-04-02T06:10:24.797Z,5.60
2023-04-02T06:11:28.844Z,6.43
2023-04-02T06:12:33.346Z,5.65
2023-04-02T06:13:18.714Z,6.45
2023-04-02T06:14:00.554Z,6.18
2023-04-02T06:14:42.456Z,6.65
2023-04-02T06:15:24.704Z,5.88
2023-04-02T06:16:09.795Z,7.63
2023-04-02T06:16:51.601Z,7.60
2023-04-02T06:17:51.082Z,7.25
2023-04-02T06:18:39.809Z,7.18
2023-04-02T06:19:31.109Z,7.55
2023-04-02T06:20:19.564Z,9.27
2023-04-02T06:21:02.261Z,6.68
2023-04-02T06:21:46.721Z,6.10
2023-04-02T06:22:40.316Z,6.30
2023-04-02T06:23:38.667Z,7.30
2023-04-02T06:24:24.407Z,6.70
2023-04-02T06:25:23.059Z,6.35
2023-04-02T06:26:24.268Z,6.20
2023-04-02T06:27:10.753Z,7.03
2023-04-02T06:27:54.521Z,6.75
2023-04-02T06:28:56.170Z,7.10
2023-04-02T06:29:44.599Z,7.80
2023-04-02T06:30:35.398Z,7.93
2023-04-02T06:31:35.821Z,7.95
2023-04-02T06:32:18.463Z,7.97
2023-04-02T06:33:00.501Z,6.80
2023-04-02T06:33:43.451Z,6.50
2023-04-02T06:34:28.426Z,6.80
2023-04-02T06:35:14.925Z,7.72
2023-04-02T06:35:57.636Z,8.15
2023-04-02T06:36:40.801Z,7.38
2023-04-02T06:37:44.641Z,6.80
2023-04-02T06:38:29.562Z,9.50
2023-04-02T06:39:23.064Z,7.82
2023-04-02T06:40:14.439Z,9.68
2023-04-02T06:41:03.424Z,7.68
2023-04-02T06:41:45.637Z,7.38
2023-04-02T06:42:40.694Z,8.05
2023-04-02T06:43:54.223Z,7.80
2023-04-02T06:44:38.029Z,9.43
2023-04-02T06:45:26.592Z,8.68
2023-04-02T06:46:34.809Z,8.45
2023-04-02T06:47:24.301Z,8.25
2023-04-02T06:48:12.865Z,8.23
2023-04-02T06:49:18.741Z,8.15
2023-04-02T06:50:23.579Z,8.75
2023-04-02T06:51:16.878Z,9.45
2023-04-02T06:52:01.762Z,9.75
2023-04-02T06:52:48.823Z,9.32
2023-04-02T06:53:44.467Z,8.50
2023-04-02T06:54:26.283Z,9.30
2023-04-02T06:55:31.744Z,8.63
2023-04-02T06:56:38.449Z,9.20
2023-04-02T06:57:20.282Z,9.13
2023-04-02T06:58:04.530Z,8.90
2023-04-02T06:58:46.474Z,9.20
2023-04-02T06:59:28.587Z,10.68
2023-04-02T07:00:31.121Z,10.32
2023-04-02T07:01:24.894Z,10.13
2023-04-02T07:02:35.823Z,8.52
2023-04-02T07:03:25.391Z,8.77
2023-04-02T07:04:08.666Z,10.27
2023-04-02T07:04:50.732Z,10.82
2023-04-02T07:05:32.927Z,9.40
2023-04-02T07:06:19.934Z,7.78
2023-04-02T07:07:01.772Z,10.43
2023-04-02T07:07:44.320Z,9.63
2023-04-02T07:08:26.511Z,9.15
2023-04-02T07:09:08.301Z,10.30
2023-04-02T07:09:50.265Z,9.55
2023-04-02T07:10:34.366Z,9.80
2023-04-02T07:11:20.990Z,11.13
2023-04-02T07:12:02.881Z,9.30
2023-04-02T07:12:44.880Z,10.45
2023-04-02T07:13:26.714Z,9.77
2023-04-02T07:14:12.918Z,8.95
2023-04-02T07:14:54.957Z,8.88
2023-04-02T07:15:36.928Z,9.80
2023-04-02T07:16:24.468Z,9.90
2023-04-02T07:17:06.534Z,11.63
2023-04-02T07:17:48.838Z,10.82
2023-04-02T07:18:33.699Z,9.05
2023-04-02T07:19:20.055Z,8.85
2023-04-02T07:20:01.887Z,9.63
2023-04-02T07:20:44.280Z,9.13
2023-04-02T07:21:29.876Z,10.02
2023-04-02T07:22:12.019Z,8.13
2023-04-02T07:22:54.548Z,11.13
2023-04-02T07:23:40.884Z,11.02
2023-04-02T07:24:22.713Z,8.30
2023-04-02T07:25:04.878Z,8.50
2023-04-02T07:25:47.892Z,10.35
2023-04-02T07:26:29.796Z,9.13
2023-04-02T07:27:12.697Z,10.13
2023-04-02T07:27:55.401Z,10.00
2023-04-02T07:28:39.290Z,8.77
2023-04-02T07:29:21.208Z,10.50
2023-04-02T07:30:04.328Z,8.50
2023-04-02T07:30:46.697Z,10.02
2023-04-02T07:31:29.509Z,10.40
2023-04-02T07:32:13.062Z,9.18
2023-04-02T07:32:55.085Z,7.60
2023-04-02T07:33:36.929Z,8.20
2023-04-02T07:34:18.934Z,9.85
2023-04-02T07:35:00.923Z,8.52
2023-04-02T07:35:43.856Z,7.28
2023-04-02T07:36:30.097Z,7.20
2023-04-02T07:37:14.653Z,8.85
2023-04-02T07:37:56.432Z,9.25
2023-04-02T07:38:38.717Z,10.27
2023-04-02T07:39:20.509Z,8.77
2023-04-02T07:40:04.520Z,7.47
2023-04-02T07:40:46.306Z,8.57
2023-04-02T07:41:28.806Z,8.32
2023-04-02T07:42:10.750Z,9.90
2023-04-02T07:42:52.792Z,9.25
2023-04-02T07:43:35.604Z,8.70
2023-04-02T07:44:19.676Z,9.23
2023-04-02T07:45:03.390Z,10.00
2023-04-02T07:45:46.547Z,9.77
2023-04-02T07:46:28.846Z,7.80
2023-04-02T07:47:10.914Z,7.00
2023-04-02T07:47:52.760Z,8.90
2023-04-02T07:48:34.787Z,9.55
2023-04-02T07:49:16.747Z,8.30
2023-04-02T07:49:58.831Z,6.97
2023-04-02T07:50:41.051Z,8.05
2023-04-02T07:51:25.980Z,10.98
2023-04-02T07:52:07.900Z,8.82
2023-04-02T07:52:49.839Z,8.38
2023-04-02T07:53:37.939Z,9.30
2023-04-02T07:54:19.972Z,10.60
2023-04-02T07:55:02.040Z,9.77
2023-04-02T07:55:46.429Z,11.20
2023-04-02T07:56:28.721Z,10.20
2023-04-02T07:57:10.589Z,9.02
2023-04-02T07:58:00.174Z,8.73
2023-04-02T07:58:44.757Z,10.57
2023-04-02T07:59:26.555Z,10.20
2023-04-02T08:00:11.871Z,10.10
2023-04-02T08:00:53.896Z,9.52
2023-04-02T08:01:36.659Z,10.23
2023-04-02T08:02:21.097Z,9.13
2023-04-02T08:03:04.752Z,10.90
2023-04-02T08:03:51.664Z,10.95
2023-04-02T08:04:34.952Z,8.32
2023-04-02T08:05:18.001Z,10.32
2023-04-02T08:05:59.851Z,12.13
2023-04-02T08:06:41.656Z,10.35
2023-04-02T08:07:23.942Z,10.00
2023-04-02T08:08:06.098Z,12.00
2023-04-02T08:08:48.132Z,10.85
2023-04-02T08:09:30.063Z,10.23
2023-04-02T08:10:15.397Z,10.98
2023-04-02T08:10:57.210Z,12.95
2023-04-02T08:11:40.188Z,12.73
2023-04-02T08:12:22.033Z,14.00
2023-04-02T08:13:04.387Z,15.02
2023-04-02T08:13:46.327Z,10.18
2023-04-02T08:14:28.035Z,9.77
2023-04-02T08:15:14.357Z,8.13
2023-04-02T08:15:59.151Z,8.55
2023-04-02T08:16:52.400Z,10.73
2023-04-02T08:17:34.641Z,11.40
2023-04-02T08:18:16.502Z,10.05
2023-04-02T08:18:58.263Z,10.18
2023-04-02T08:19:53.702Z,11.50
2023-04-02T08:20:37.224Z,8.80
2023-04-02T08:21:19.548Z,11.20
2023-04-02T08:22:01.412Z,12.27
2023-04-02T08:22:43.567Z,10.70
2023-04-02T08:23:25.648Z,8.90
2023-04-02T08:24:10.164Z,8.40
2023-04-02T08:24:51.962Z,8.68
2023-04-02T08:25:34.490Z,8.95
2023-04-02T08:26:18.526Z,10.38
2023-04-02T08:27:00.405Z,9.98
2023-04-02T08:27:44.857Z,10.48
2023-04-02T08:28:27.106Z,10.27
2023-04-02T08:29:09.226Z,10.82
2023-04-02T08:29:51.225Z,10.23
2023-04-02T08:30:35.164Z,8.88
2023-04-02T08:31:17.396Z,8.73
2023-04-02T08:32:00.050Z,11.98
2023-04-02T08:32:41.958Z,11.23
2023-04-02T08:33:24.290Z,8.02
2023-04-02T08:34:06.156Z,10.77
2023-04-02T08:34:50.324Z,10.20
2023-04-02T08:35:32.282Z,11.95
2023-04-02T08:36:17.242Z,10.50
2023-04-02T08:36:59.665Z,12.27
2023-04-02T08:37:42.045Z,10.07
2023-04-02T08:38:25.388Z,8.98
2023-04-02T08:39:12.648Z,8.63
2023-04-02T08:39:54.754Z,9.65
2023-04-02T08:40:39.660Z,10.32
2023-04-02T08:41:32.242Z,11.38
2023-04-02T08:42:28.266Z,9.57
2023-04-02T08:43:38.974Z,11.82
2023-04-02T08:44:46.819Z,10.75
2023-04-02T08:45:54.909Z,10.93
2023-04-02T08:46:54.359Z,9.90
2023-04-02T08:47:39.459Z,10.13
2023-04-02T08:48:21.567Z,11.55
2023-04-02T08:49:16.672Z,10.93
2023-04-02T08:50:06.748Z,9.50
2023-04-02T08:50:50.455Z,11.20
2023-04-02T08:51:36.430Z,9.85
2023-04-02T08:52:31.682Z,10.13
2023-04-02T08:53:21.542Z,12.52
2023-04-02T08:54:27.779Z,8.60
2023-04-02T08:55:33.597Z,12.88
2023-04-02T08:56:37.386Z,9.07
2023-04-02T08:57:22.175Z,10.25
2023-04-02T08:58:23.890Z,9.30
2023-04-02T08:59:42.151Z,10.07
2023-04-02T09:00:57.786Z,7.70
2023-04-02T09:02:02.656Z,11.07
2023-04-02T09:02:56.434Z,10.23
2023-04-02T09:03:45.623Z,10.70
2023-04-02T09:04:30.556Z,9.73
2023-04-02T09:05:23.607Z,11.20
2023-04-02T09:06:10.045Z,10.23
2023-04-02T09:06:54.385Z,10.10
2023-04-02T09:07:37.199Z,9.82
2023-04-02T09:08:21.942Z,10.82
2023-04-02T09:09:05.090Z,10.57
2023-04-02T09:09:51.034Z,11.07
2023-04-02T09:10:39.813Z,9.73
2023-04-02T09:11:22.257Z,9.40
2023-04-02T09:12:06.978Z,10.18
2023-04-02T09:12:55.009Z,11.68
2023-04-02T09:13:44.455Z,11.50
2023-04-02T09:14:41.328Z,11.35
2023-04-02T09:15:34.218Z,10.10
2023-04-02T09:16:21.326Z,9.98
2023-04-02T09:17:06.422Z,10.65
2023-04-02T09:17:54.099Z,10.15
2023-04-02T09:18:37.223Z,10.50
2023-04-02T09:19:25.877Z,9.53
2023-04-02T09:20:17.168Z,11.93
2023-04-02T09:21:03.525Z,9.02
2023-04-02T09:22:13.606Z,9.93
2023-04-02T09:22:56.791Z,13.85
2023-04-02T09:23:38.608Z,13.38
2023-04-02T09:24:20.434Z,11.75
2023-04-02T09:25:05.027Z,9.68
2023-04-02T09:26:02.945Z,9.65
2023-04-02T09:26:46.690Z,9.80
2023-04-02T09:27:31.683Z,10.43
2023-04-02T09:28:14.894Z,8.32
2023-04-02T09:29:08.552Z,8.52
2023-04-02T09:30:11.848Z,11.73
2023-04-02T09:31:01.453Z,9.35
2023-04-02T09:31:55.611Z,8.73
2023-04-02T09:32:50.336Z,11.20
2023-04-02T09:33:49.419Z,12.73
2023-04-02T09:34:36.142Z,9.65
2023-04-02T09:35:26.614Z,9.82
2023-04-02T09:36:27.309Z,10.50
2023-04-02T09:37:17.308Z,10.18
2023-04-02T09:38:10.114Z,8.88
2023-04-02T09:39:19.426Z,9.15
2023-04-02T09:40:35.046Z,9.15
2023-04-02T09:41:21.185Z,10.05
2023-04-02T09:42:26.558Z,9.50
2023-04-02T09:43:15.566Z,9.50
2023-04-02T09:44:27.209Z,12.18
2023-04-02T09:45:22.224Z,8.48
2023-04-02T09:46:12.784Z,8.02
2023-04-02T09:46:59.570Z,8.30
2023-04-02T09:47:42.572Z,7.60
2023-04-02T09:48:34.311Z,9.02
2023-04-02T09:49:20.238Z,8.75
2023-04-02T09:50:34.488Z,9.48
2023-04-02T09:51:21.349Z,8.55
2023-04-02T09:52:14.731Z,8.65
2023-04-02T09:52:56.525Z,9.65
2023-04-02T09:53:43.669Z,10.20
2023-04-02T09:54:26.441Z,7.53
2023-04-02T09:55:25.396Z,8.65
2023-04-02T09:56:25.804Z,8.30
2023-04-02T09:57:21.267Z,9.00
2023-04-02T09:58:17.112Z,10.00
2023-04-02T09:59:18.792Z,8.13
2023-04-02T10:00:32.190Z,7.93
2023-04-02T10:01:39.594Z,9.70
2023-04-02T10:02:27.103Z,9.05
2023-04-02T10:03:24.607Z,6.68
2023-04-02T10:04:27.603Z,9.18
2023-04-02T10:05:39.253Z,8.55
2023-04-02T10:06:22.548Z,9.27
2023-04-02T10:07:10.299Z,9.50
2023-04-02T10:07:54.678Z,10.38
2023-04-02T10:08:41.026Z,9.13
2023-04-02T10:09:32.381Z,8.40
2023-04-02T10:10:35.309Z,8.50
2023-04-02T10:11:46.303Z,10.15
2023-04-02T10:12:34.085Z,7.63
2023-04-02T10:13:33.728Z,9.02
2023-04-02T10:14:20.403Z,8.80
2023-04-02T10:15:04.813Z,7.80
2023-04-02T10:15:58.009Z,8.48
2023-04-02T10:16:45.598Z,8.13
2023-04-02T10:17:33.013Z,8.80
2023-04-02T10:18:31.174Z,11.50
2023-04-02T10:19:22.813Z,8.80
2023-04-02T10:20:22.444Z,9.02
2023-04-02T10:21:06.451Z,8.75
2023-04-02T10:21:49.704Z,12.25
2023-04-02T10:22:31.942Z,12.00
2023-04-02T10:23:18.909Z,10.85
2023-04-02T10:24:03.071Z,11.55
2023-04-02T10:24:45.544Z,10.13
2023-04-02T10:25:33.038Z,8.55
2023-04-02T10:26:23.834Z,8.38
2023-04-02T10:27:17.396Z,10.05
2023-04-02T10:28:13.014Z,10.82
2023-04-02T10:29:17.940Z,11.65
2023-04-02T10:30:09.569Z,10.70
2023-04-02T10:31:07.320Z,9.35
2023-04-02T10:32:08.934Z,10.48
2023-04-02T10:33:05.523Z,11.98
2023-04-02T10:33:51.842Z,7.18
2023-04-02T10:34:36.503Z,8.30
2023-04-02T10:35:36.710Z,9.23
2023-04-02T10:36:48.156Z,8.77
2023-04-02T10:37:52.800Z,9.88
2023-04-02T10:39:10.867Z,8.85
2023-04-02T10:39:59.786Z,10.18
2023-04-02T10:41:30.011Z,8.55
2023-04-02T10:42:50.384Z,9.10
2023-04-02T10:43:46.730Z,8.55
2023-04-02T10:44:46.298Z,9.23
2023-04-02T10:45:40.705Z,7.90
2023-04-02T10:46:38.553Z,8.10
2023-04-02T10:47:35.124Z,13.98
2023-04-02T10:48:54.018Z,8.38
2023-04-02T10:49:41.981Z,7.70
2023-04-02T10:50:27.799Z,8.35
2023-04-02T10:51:12.426Z,7.95
2023-04-02T10:52:15.712Z,9.63
2023-04-02T10:53:14.823Z,7.32
2023-04-02T10:54:38.863Z,9.50
2023-04-02T10:55:25.816Z,8.07
2023-04-02T10:56:12.417Z,8.07
2023-04-02T10:57:05.019Z,7.53
2023-04-02T10:57:47.179Z,9.45
2023-04-02T10:58:31.995Z,9.90
2023-04-02T10:59:22.623Z,10.10
2023-04-02T11:00:17.114Z,7.97
2023-04-02T11:01:08.071Z,8.82
2023-04-02T11:01:51.638Z,8.63
2023-04-02T11:02:44.221Z,8.00
2023-04-02T11:03:37.310Z,9.02
2023-04-02T11:04:21.964Z,9.90
2023-04-02T11:05:23.867Z,8.82
2023-04-02T11:06:18.977Z,8.93
2023-04-02T11:07:14.445Z,8.98
2023-04-02T11:08:24.642Z,10.80
2023-04-02T11:09:13.746Z,10.52
2023-04-02T11:09:58.105Z,8.27
2023-04-02T11:10:46.543Z,8.23
2023-04-02T11:11:38.925Z,7.50
2023-04-02T11:12:46.030Z,8.10
2023-04-02T11:13:30.809Z,8.15
2023-04-02T11:14:24.869Z,10.00
2023-04-02T11:15:18.098Z,7.65
2023-04-02T11:16:00.042Z,8.70
2023-04-02T11:16:45.178Z,7.68
2023-04-02T11:17:27.219Z,7.93
2023-04-02T11:18:34.349Z,8.65
2023-04-02T11:19:16.606Z,8.63
2023-04-02T11:20:37.310Z,8.48
2023-04-02T11:21:57.158Z,8.48
2023-04-02T11:22:40.398Z,8.18